Airport View

Enter ICAO identifier to see the current METAR for that AWOS.

KFNL for example

KMVN 300035Z AUTO 00000KT 10SM CLR 22/13 A3007 RMK AO1

30 Jul 2014 00:54

Frequency: 113.8

Phone: 618-242-7933

Other Area AWOS: KENL - KSLO - KFWC - KFOA

TAF KBLV 3000/3106 31009KT 9999 FEW050 QNH3004INS BECMG 3005/3006 27009KT 9999 FEW030 QNH3005INS TX28/3020Z TN15/3008Z